createdAt,value
2023-02-27T00:04:48.104Z,1.15
2023-02-27T00:09:51.382Z,1.10
2023-02-27T00:14:54.627Z,1.13
2023-02-27T00:19:59.263Z,1.20
2023-02-27T00:25:02.471Z,0.77
2023-02-27T00:30:06.405Z,1.33
2023-02-27T00:35:12.785Z,1.13
2023-02-27T00:40:16.418Z,1.50
2023-02-27T00:45:20.852Z,0.88
2023-02-27T00:50:25.707Z,1.20
2023-02-27T00:55:28.978Z,1.77
2023-02-27T01:00:32.285Z,0.80
2023-02-27T01:05:37.777Z,1.05
2023-02-27T01:10:41.074Z,1.40
2023-02-27T01:15:44.690Z,1.05
2023-02-27T01:20:53.542Z,0.90
2023-02-27T01:25:56.729Z,1.17
2023-02-27T01:31:00.007Z,0.88
2023-02-27T01:36:04.859Z,0.95
2023-02-27T01:41:08.168Z,1.13
2023-02-27T01:46:11.423Z,0.90
2023-02-27T01:51:21.242Z,1.52
2023-02-27T01:56:26.801Z,1.27
2023-02-27T02:01:31.294Z,1.00
2023-02-27T02:06:40.949Z,1.92
2023-02-27T02:11:45.369Z,1.10
2023-02-27T02:17:05.040Z,0.90
2023-02-27T02:22:47.056Z,1.00
2023-02-27T02:28:06.782Z,0.75
2023-02-27T02:33:48.880Z,0.80
2023-02-27T02:39:07.596Z,0.98
2023-02-27T02:44:21.665Z,1.08
2023-02-27T02:49:34.433Z,1.48
2023-02-27T02:54:45.359Z,1.33
2023-02-27T02:59:56.163Z,1.13
2023-02-27T03:05:03.285Z,2.05
2023-02-27T03:10:13.178Z,1.33
2023-02-27T03:15:23.065Z,1.42
2023-02-27T03:20:30.537Z,1.50
2023-02-27T03:25:36.608Z,1.17
2023-02-27T03:30:46.473Z,3.15
2023-02-27T03:35:57.497Z,1.80
2023-02-27T03:41:12.736Z,1.58
2023-02-27T03:46:27.010Z,1.23
2023-02-27T03:51:32.074Z,1.40
2023-02-27T03:56:42.684Z,1.63
2023-02-27T04:01:46.694Z,2.08
2023-02-27T04:07:14.489Z,1.80
2023-02-27T04:12:45.875Z,1.20
2023-02-27T04:17:57.572Z,1.33
2023-02-27T04:23:06.818Z,2.05
2023-02-27T04:28:18.341Z,1.13
2023-02-27T04:33:30.459Z,1.48
2023-02-27T04:38:39.180Z,1.52
2023-02-27T04:43:45.988Z,0.85
2023-02-27T04:48:58.037Z,1.25
2023-02-27T04:54:05.918Z,1.05
2023-02-27T04:59:16.848Z,0.98
2023-02-27T05:04:23.487Z,1.13
2023-02-27T05:09:35.209Z,1.20
2023-02-27T05:14:44.954Z,2.45
2023-02-27T05:19:48.776Z,1.40
2023-02-27T05:24:57.814Z,1.45
2023-02-27T05:30:06.691Z,1.20
2023-02-27T05:35:17.452Z,0.95
2023-02-27T05:40:26.335Z,1.23
2023-02-27T05:45:34.891Z,1.50
2023-02-27T05:50:40.647Z,1.20
2023-02-27T05:55:48.409Z,1.38
2023-02-27T06:00:58.640Z,1.65
2023-02-27T06:06:06.004Z,1.60
2023-02-27T06:11:09.807Z,1.42
2023-02-27T06:16:17.464Z,1.45
2023-02-27T06:21:21.231Z,1.98
2023-02-27T06:26:25.045Z,1.45
2023-02-27T06:31:30.201Z,1.77
2023-02-27T06:36:33.833Z,1.55
2023-02-27T06:41:37.103Z,1.75
2023-02-27T06:46:42.174Z,2.75
2023-02-27T06:51:45.767Z,1.67
2023-02-27T06:56:49.655Z,2.47
2023-02-27T07:01:55.612Z,2.03
2023-02-27T07:07:35.610Z,1.80
2023-02-27T07:12:23.828Z,1.38
2023-02-27T07:17:28.626Z,1.63
2023-02-27T07:22:32.287Z,1.53
2023-02-27T07:27:36.003Z,1.40
2023-02-27T07:32:40.642Z,2.00
2023-02-27T07:37:44.227Z,1.67
2023-02-27T07:42:48.923Z,2.20
2023-02-27T07:52:58.224Z,2.72
2023-02-27T07:58:01.931Z,1.92
2023-02-27T08:03:07.002Z,1.70
2023-02-27T08:08:10.293Z,1.85
2023-02-27T08:13:14.208Z,2.00
2023-02-27T08:18:18.835Z,1.08
2023-02-27T08:23:22.556Z,1.13
2023-02-27T08:28:26.964Z,1.73
2023-02-27T08:33:31.956Z,1.80
2023-02-27T08:38:35.677Z,1.55
2023-02-27T08:43:39.228Z,1.80
2023-02-27T08:48:44.468Z,1.58
2023-02-27T08:53:48.059Z,1.65
2023-02-27T08:58:51.685Z,1.85
2023-02-27T09:03:56.452Z,1.73
2023-02-27T09:09:00.201Z,2.03
2023-02-27T09:14:03.970Z,1.75
2023-02-27T09:19:08.773Z,1.55
2023-02-27T09:24:19.699Z,1.47
2023-02-27T09:29:25.738Z,1.83
2023-02-27T09:34:30.755Z,1.58
2023-02-27T09:39:34.196Z,2.20
2023-02-27T09:44:47.670Z,1.77
2023-02-27T09:50:00.823Z,2.22
2023-02-27T09:55:06.863Z,1.65
2023-02-27T10:00:31.523Z,2.20
2023-02-27T10:05:39.751Z,1.50
2023-02-27T10:10:50.838Z,1.40
2023-02-27T10:15:55.470Z,1.83
2023-02-27T10:21:02.727Z,2.35
2023-02-27T10:26:07.399Z,1.95
2023-02-27T10:31:21.169Z,1.98
2023-02-27T10:36:34.119Z,2.03
2023-02-27T10:41:40.006Z,1.20
2023-02-27T10:46:43.821Z,1.67
2023-02-27T10:52:04.531Z,1.77
2023-02-27T10:57:21.894Z,1.30
2023-02-27T11:02:29.495Z,1.23
2023-02-27T11:07:37.486Z,1.88
2023-02-27T11:12:42.002Z,1.27
2023-02-27T11:17:45.588Z,1.15
2023-02-27T11:23:04.198Z,1.58
2023-02-27T11:28:21.454Z,1.75
2023-02-27T11:33:25.864Z,1.20
2023-02-27T11:38:32.267Z,1.33
2023-02-27T11:43:40.091Z,1.30
2023-02-27T11:48:49.769Z,1.35
2023-02-27T11:54:15.763Z,1.80
2023-02-27T12:04:44.392Z,1.48
2023-02-27T12:09:54.912Z,0.80
2023-02-27T12:15:16.697Z,0.90
2023-02-27T12:20:28.426Z,0.98
2023-02-27T12:25:46.555Z,1.10
2023-02-27T12:31:03.324Z,0.85
2023-02-27T12:36:12.186Z,0.93
2023-02-27T12:41:41.692Z,1.65
2023-02-27T12:46:51.276Z,0.90
2023-02-27T12:52:05.384Z,1.42
2023-02-27T12:57:28.067Z,0.80
2023-02-27T13:02:42.019Z,1.65
2023-02-27T13:07:54.756Z,1.02
2023-02-27T13:13:09.637Z,1.00
2023-02-27T13:18:29.185Z,0.53
2023-02-27T13:23:43.351Z,1.02
2023-02-27T13:28:48.563Z,1.30
2023-02-27T13:34:00.467Z,1.10
2023-02-27T13:39:04.304Z,1.10
2023-02-27T13:44:40.987Z,0.80
2023-02-27T13:49:44.540Z,0.63
2023-02-27T13:54:47.963Z,0.60
2023-02-27T13:59:58.914Z,0.73
2023-02-27T14:05:06.154Z,0.63
2023-02-27T14:10:11.974Z,0.93
2023-02-27T14:15:48.638Z,1.02
2023-02-27T14:20:53.924Z,0.63
2023-02-27T14:26:03.627Z,0.82
2023-02-27T14:31:09.844Z,0.73
2023-02-27T14:36:19.955Z,1.02
2023-02-27T14:41:33.005Z,0.75
2023-02-27T14:46:38.405Z,0.90
2023-02-27T14:51:43.219Z,1.20
2023-02-27T14:56:56.043Z,1.53
2023-02-27T15:02:02.138Z,1.50
2023-02-27T15:07:06.888Z,1.10
2023-02-27T15:12:11.218Z,1.05
2023-02-27T15:17:19.877Z,1.60
2023-02-27T15:22:38.462Z,1.02
2023-02-27T15:27:43.385Z,1.00
2023-02-27T15:32:46.660Z,1.33
2023-02-27T15:37:53.927Z,1.65
2023-02-27T15:42:58.201Z,1.50
2023-02-27T15:48:01.630Z,1.30
2023-02-27T15:53:12.277Z,1.70
2023-02-27T15:58:22.047Z,1.63
2023-02-27T16:03:30.761Z,1.33
2023-02-27T16:08:35.786Z,1.50
2023-02-27T16:13:41.098Z,1.07
2023-02-27T16:18:47.676Z,1.42
2023-02-27T16:23:54.830Z,1.35
2023-02-27T16:34:14.332Z,1.23
2023-02-27T16:39:18.984Z,1.00
2023-02-27T16:44:23.982Z,1.00
2023-02-27T16:49:31.640Z,0.90
2023-02-27T16:54:37.819Z,0.90
2023-02-27T16:59:41.935Z,1.10
2023-02-27T17:04:47.947Z,1.02
2023-02-27T17:09:52.669Z,1.13
2023-02-27T17:14:56.335Z,1.47
2023-02-27T17:19:59.704Z,1.48
2023-02-27T17:25:04.749Z,0.90
2023-02-27T17:30:10.180Z,0.88
2023-02-27T17:35:13.492Z,1.10
2023-02-27T17:40:18.692Z,1.23
2023-02-27T17:45:22.605Z,1.27
2023-02-27T17:50:25.847Z,0.98
2023-02-27T17:55:30.508Z,1.33
2023-02-27T18:00:33.770Z,2.03
2023-02-27T18:05:37.044Z,1.50
2023-02-27T18:10:41.712Z,1.50
2023-02-27T18:15:45.442Z,1.47
2023-02-27T18:20:49.014Z,1.55
2023-02-27T18:25:56.618Z,1.67
2023-02-27T18:31:00.130Z,1.52
2023-02-27T18:36:03.819Z,2.00
2023-02-27T18:41:09.443Z,1.67
2023-02-27T18:46:13.454Z,1.83
2023-02-27T18:51:19.250Z,2.05
2023-02-27T18:56:26.759Z,1.50
2023-02-27T19:01:32.666Z,1.55
2023-02-27T19:06:38.945Z,1.42
2023-02-27T19:11:45.335Z,1.58
2023-02-27T19:16:50.838Z,2.33
2023-02-27T19:26:58.729Z,2.55
2023-02-27T19:32:03.368Z,2.20
2023-02-27T19:37:06.585Z,1.93
2023-02-27T19:42:11.243Z,2.00
2023-02-27T19:47:14.742Z,2.20
2023-02-27T19:52:18.030Z,2.55
2023-02-27T19:57:22.849Z,2.90
2023-02-27T20:02:26.440Z,2.50
2023-02-27T20:07:30.449Z,3.08
2023-02-27T20:12:35.092Z,3.20
2023-02-27T20:17:38.566Z,2.70
2023-02-27T20:22:44.386Z,3.10
2023-02-27T20:27:49.398Z,3.42
2023-02-27T20:32:54.237Z,3.10
2023-02-27T20:37:57.803Z,4.00
2023-02-27T20:43:03.944Z,4.07
2023-02-27T20:48:08.008Z,3.78
2023-02-27T20:53:11.579Z,4.47
2023-02-27T20:58:16.257Z,5.05
2023-02-27T21:03:19.526Z,4.10
2023-02-27T21:08:23.191Z,4.75
2023-02-27T21:13:28.128Z,4.35
2023-02-27T21:18:31.919Z,4.43
2023-02-27T21:23:41.455Z,3.45
2023-02-27T21:28:52.114Z,3.08
2023-02-27T21:33:55.616Z,3.58
2023-02-27T21:39:01.019Z,2.70
2023-02-27T21:44:08.100Z,2.78
2023-02-27T21:49:17.410Z,3.55
2023-02-27T21:54:21.325Z,2.50
2023-02-27T21:59:26.054Z,3.28
2023-02-27T22:04:29.331Z,3.00
2023-02-27T22:09:33.075Z,2.90
2023-02-27T22:14:37.690Z,3.10
2023-02-27T22:19:41.080Z,2.93
2023-02-27T22:24:44.369Z,3.33
2023-02-27T22:29:48.948Z,3.13
2023-02-27T22:34:52.335Z,2.28
2023-02-27T22:39:55.582Z,2.22
2023-02-27T22:45:00.494Z,2.25
2023-02-27T22:50:04.176Z,2.85
2023-02-27T22:55:08.660Z,2.38
2023-02-27T23:00:15.684Z,2.33
2023-02-27T23:05:19.250Z,2.72
2023-02-27T23:10:22.777Z,2.83
2023-02-27T23:15:27.489Z,2.63
2023-02-27T23:20:30.805Z,2.47
2023-02-27T23:25:35.010Z,1.90
2023-02-27T23:30:39.638Z,2.65
2023-02-27T23:35:43.239Z,2.40
2023-02-27T23:40:46.636Z,2.85
2023-02-27T23:45:51.401Z,1.83
2023-02-27T23:50:54.694Z,2.43
2023-02-27T23:55:58.214Z,2.20
